sensor_id;sensor_type;location;lat;lon;timestamp;P1;durP1;ratioP1;P2;durP2;ratioP2
41305;SDS011;27051;50.376;19.152;2022-12-07T00:01:31;31.42;;;15.72;;
41305;SDS011;27051;50.376;19.152;2022-12-07T00:03:58;35.10;;;17.12;;
41305;SDS011;27051;50.376;19.152;2022-12-07T00:06:28;35.70;;;16.70;;
41305;SDS011;27051;50.376;19.152;2022-12-07T00:08:54;29.77;;;15.15;;
41305;SDS011;27051;50.376;19.152;2022-12-07T00:11:21;34.88;;;16.67;;
41305;SDS011;27051;50.376;19.152;2022-12-07T00:13:56;32.33;;;16.52;;
41305;SDS011;27051;50.376;19.152;2022-12-07T00:16:27;37.80;;;16.67;;
41305;SDS011;27051;50.376;19.152;2022-12-07T00:18:56;34.75;;;16.40;;
41305;SDS011;27051;50.376;19.152;2022-12-07T00:21:24;31.30;;;15.93;;
41305;SDS011;27051;50.376;19.152;2022-12-07T00:23:55;32.40;;;15.25;;
41305;SDS011;27051;50.376;19.152;2022-12-07T00:26:24;38.58;;;16.75;;
41305;SDS011;27051;50.376;19.152;2022-12-07T00:28:59;34.95;;;16.27;;
41305;SDS011;27051;50.376;19.152;2022-12-07T00:31:26;36.95;;;18.23;;
41305;SDS011;27051;50.376;19.152;2022-12-07T00:33:56;37.47;;;17.23;;
41305;SDS011;27051;50.376;19.152;2022-12-07T00:36:24;35.75;;;16.73;;
41305;SDS011;27051;50.376;19.152;2022-12-07T00:38:52;33.40;;;16.17;;
41305;SDS011;27051;50.376;19.152;2022-12-07T00:41:20;35.08;;;16.15;;
41305;SDS011;27051;50.376;19.152;2022-12-07T00:43:49;32.63;;;16.10;;
41305;SDS011;27051;50.376;19.152;2022-12-07T00:46:18;35.35;;;17.45;;
41305;SDS011;27051;50.376;19.152;2022-12-07T00:48:46;38.25;;;18.77;;
41305;SDS011;27051;50.376;19.152;2022-12-07T00:51:14;36.60;;;17.55;;
41305;SDS011;27051;50.376;19.152;2022-12-07T00:53:44;37.42;;;18.37;;
41305;SDS011;27051;50.376;19.152;2022-12-07T00:56:15;31.33;;;15.93;;
41305;SDS011;27051;50.376;19.152;2022-12-07T00:58:49;35.33;;;17.52;;
41305;SDS011;27051;50.376;19.152;2022-12-07T01:01:27;38.73;;;18.23;;
41305;SDS011;27051;50.376;19.152;2022-12-07T01:03:57;44.73;;;19.77;;
41305;SDS011;27051;50.376;19.152;2022-12-07T01:06:25;38.78;;;18.32;;
41305;SDS011;27051;50.376;19.152;2022-12-07T01:08:52;37.83;;;17.00;;
41305;SDS011;27051;50.376;19.152;2022-12-07T01:11:26;39.67;;;17.15;;
41305;SDS011;27051;50.376;19.152;2022-12-07T01:13:56;35.95;;;17.35;;
41305;SDS011;27051;50.376;19.152;2022-12-07T01:16:26;36.55;;;17.20;;
41305;SDS011;27051;50.376;19.152;2022-12-07T01:18:54;32.08;;;15.40;;
41305;SDS011;27051;50.376;19.152;2022-12-07T01:21:27;30.95;;;15.28;;
41305;SDS011;27051;50.376;19.152;2022-12-07T01:23:57;33.20;;;15.90;;
41305;SDS011;27051;50.376;19.152;2022-12-07T01:26:24;28.27;;;14.98;;
41305;SDS011;27051;50.376;19.152;2022-12-07T01:28:52;28.83;;;14.83;;
41305;SDS011;27051;50.376;19.152;2022-12-07T01:31:21;32.20;;;14.28;;
41305;SDS011;27051;50.376;19.152;2022-12-07T01:33:51;31.50;;;14.70;;
41305;SDS011;27051;50.376;19.152;2022-12-07T01:38:59;32.65;;;15.95;;
41305;SDS011;27051;50.376;19.152;2022-12-07T01:41:30;35.17;;;17.37;;
41305;SDS011;27051;50.376;19.152;2022-12-07T01:46:50;34.55;;;17.05;;
41305;SDS011;27051;50.376;19.152;2022-12-07T01:49:42;32.98;;;17.10;;
41305;SDS011;27051;50.376;19.152;2022-12-07T01:54:51;31.33;;;16.07;;
41305;SDS011;27051;50.376;19.152;2022-12-07T01:57:21;47.47;;;26.30;;
41305;SDS011;27051;50.376;19.152;2022-12-07T01:59:48;36.93;;;18.30;;
41305;SDS011;27051;50.376;19.152;2022-12-07T02:02:19;30.82;;;15.35;;
41305;SDS011;27051;50.376;19.152;2022-12-07T02:04:53;29.37;;;13.58;;
41305;SDS011;27051;50.376;19.152;2022-12-07T02:07:22;28.45;;;13.48;;
41305;SDS011;27051;50.376;19.152;2022-12-07T02:09:50;27.98;;;14.45;;
41305;SDS011;27051;50.376;19.152;2022-12-07T02:12:17;27.73;;;14.50;;
41305;SDS011;27051;50.376;19.152;2022-12-07T02:14:44;28.17;;;14.00;;
41305;SDS011;27051;50.376;19.152;2022-12-07T02:17:15;26.05;;;12.65;;
41305;SDS011;27051;50.376;19.152;2022-12-07T02:27:52;29.80;;;13.83;;
41305;SDS011;27051;50.376;19.152;2022-12-07T02:30:53;28.85;;;14.07;;
41305;SDS011;27051;50.376;19.152;2022-12-07T02:33:28;29.15;;;13.72;;
41305;SDS011;27051;50.376;19.152;2022-12-07T02:41:26;39.48;;;19.80;;
41305;SDS011;27051;50.376;19.152;2022-12-07T02:44:00;39.08;;;19.02;;
41305;SDS011;27051;50.376;19.152;2022-12-07T02:46:34;42.53;;;18.82;;
41305;SDS011;27051;50.376;19.152;2022-12-07T02:49:09;42.30;;;18.70;;
41305;SDS011;27051;50.376;19.152;2022-12-07T02:51:40;42.85;;;19.60;;
41305;SDS011;27051;50.376;19.152;2022-12-07T02:54:13;38.33;;;17.80;;
41305;SDS011;27051;50.376;19.152;2022-12-07T02:59:41;38.20;;;20.05;;
41305;SDS011;27051;50.376;19.152;2022-12-07T03:05:18;34.78;;;16.97;;
41305;SDS011;27051;50.376;19.152;2022-12-07T03:08:02;41.15;;;19.55;;
41305;SDS011;27051;50.376;19.152;2022-12-07T03:10:58;42.10;;;18.17;;
41305;SDS011;27051;50.376;19.152;2022-12-07T03:16:28;33.60;;;16.60;;
41305;SDS011;27051;50.376;19.152;2022-12-07T03:19:07;33.13;;;15.73;;
41305;SDS011;27051;50.376;19.152;2022-12-07T03:21:47;34.88;;;16.48;;
41305;SDS011;27051;50.376;19.152;2022-12-07T03:24:21;40.78;;;22.42;;
41305;SDS011;27051;50.376;19.152;2022-12-07T03:29:36;32.30;;;15.13;;
41305;SDS011;27051;50.376;19.152;2022-12-07T03:32:12;36.63;;;16.62;;
41305;SDS011;27051;50.376;19.152;2022-12-07T03:34:50;37.20;;;17.25;;
41305;SDS011;27051;50.376;19.152;2022-12-07T03:37:23;37.33;;;17.23;;
41305;SDS011;27051;50.376;19.152;2022-12-07T03:40:11;36.10;;;17.50;;
41305;SDS011;27051;50.376;19.152;2022-12-07T03:42:52;36.42;;;18.52;;
41305;SDS011;27051;50.376;19.152;2022-12-07T03:45:23;38.20;;;19.02;;
41305;SDS011;27051;50.376;19.152;2022-12-07T03:48:05;31.80;;;16.65;;
41305;SDS011;27051;50.376;19.152;2022-12-07T03:50:39;38.30;;;17.40;;
41305;SDS011;27051;50.376;19.152;2022-12-07T03:53:18;36.40;;;16.82;;
41305;SDS011;27051;50.376;19.152;2022-12-07T03:55:49;35.35;;;17.37;;
41305;SDS011;27051;50.376;19.152;2022-12-07T03:58:19;40.05;;;19.07;;
41305;SDS011;27051;50.376;19.152;2022-12-07T04:00:48;41.28;;;20.60;;
41305;SDS011;27051;50.376;19.152;2022-12-07T04:03:16;42.10;;;19.80;;
41305;SDS011;27051;50.376;19.152;2022-12-07T04:05:43;46.98;;;22.98;;
41305;SDS011;27051;50.376;19.152;2022-12-07T04:08:11;43.50;;;21.68;;
41305;SDS011;27051;50.376;19.152;2022-12-07T04:10:38;45.25;;;20.97;;
41305;SDS011;27051;50.376;19.152;2022-12-07T04:13:05;43.98;;;20.85;;
41305;SDS011;27051;50.376;19.152;2022-12-07T04:15:31;50.55;;;23.22;;
41305;SDS011;27051;50.376;19.152;2022-12-07T04:17:58;51.23;;;22.98;;
41305;SDS011;27051;50.376;19.152;2022-12-07T04:20:25;43.60;;;21.87;;
41305;SDS011;27051;50.376;19.152;2022-12-07T04:22:52;49.33;;;21.75;;
41305;SDS011;27051;50.376;19.152;2022-12-07T04:25:19;48.23;;;22.22;;
41305;SDS011;27051;50.376;19.152;2022-12-07T04:27:46;52.03;;;21.77;;
41305;SDS011;27051;50.376;19.152;2022-12-07T04:30:12;39.05;;;18.25;;
41305;SDS011;27051;50.376;19.152;2022-12-07T04:32:39;50.58;;;22.05;;
41305;SDS011;27051;50.376;19.152;2022-12-07T04:35:06;42.80;;;18.50;;
41305;SDS011;27051;50.376;19.152;2022-12-07T04:37:34;40.50;;;17.65;;
41305;SDS011;27051;50.376;19.152;2022-12-07T04:40:01;34.38;;;16.00;;
41305;SDS011;27051;50.376;19.152;2022-12-07T04:42:28;36.75;;;16.97;;
41305;SDS011;27051;50.376;19.152;2022-12-07T04:44:55;37.70;;;18.27;;
41305;SDS011;27051;50.376;19.152;2022-12-07T04:47:22;38.38;;;17.25;;
41305;SDS011;27051;50.376;19.152;2022-12-07T04:49:48;33.50;;;15.70;;
41305;SDS011;27051;50.376;19.152;2022-12-07T04:52:15;33.45;;;17.15;;
41305;SDS011;27051;50.376;19.152;2022-12-07T04:54:42;40.45;;;17.60;;
41305;SDS011;27051;50.376;19.152;2022-12-07T04:57:08;37.05;;;16.52;;
41305;SDS011;27051;50.376;19.152;2022-12-07T04:59:35;38.20;;;17.55;;
41305;SDS011;27051;50.376;19.152;2022-12-07T05:02:02;30.27;;;15.28;;
41305;SDS011;27051;50.376;19.152;2022-12-07T05:04:28;30.95;;;15.48;;
41305;SDS011;27051;50.376;19.152;2022-12-07T05:06:55;26.37;;;13.43;;
41305;SDS011;27051;50.376;19.152;2022-12-07T05:09:22;30.43;;;14.50;;
41305;SDS011;27051;50.376;19.152;2022-12-07T05:11:48;30.02;;;13.48;;
41305;SDS011;27051;50.376;19.152;2022-12-07T05:14:16;27.98;;;14.00;;
41305;SDS011;27051;50.376;19.152;2022-12-07T05:16:46;24.67;;;12.58;;
41305;SDS011;27051;50.376;19.152;2022-12-07T05:19:16;23.95;;;10.68;;
41305;SDS011;27051;50.376;19.152;2022-12-07T05:21:44;30.08;;;12.88;;
41305;SDS011;27051;50.376;19.152;2022-12-07T05:24:12;28.10;;;13.05;;
41305;SDS011;27051;50.376;19.152;2022-12-07T05:26:40;22.35;;;10.58;;
41305;SDS011;27051;50.376;19.152;2022-12-07T05:29:10;25.00;;;12.25;;
41305;SDS011;27051;50.376;19.152;2022-12-07T05:31:39;29.85;;;13.13;;
41305;SDS011;27051;50.376;19.152;2022-12-07T05:34:06;24.50;;;10.85;;
41305;SDS011;27051;50.376;19.152;2022-12-07T05:36:33;23.27;;;10.60;;
41305;SDS011;27051;50.376;19.152;2022-12-07T05:39:00;22.42;;;10.60;;
41305;SDS011;27051;50.376;19.152;2022-12-07T05:41:27;23.22;;;10.13;;
41305;SDS011;27051;50.376;19.152;2022-12-07T05:43:53;20.12;;;9.10;;
41305;SDS011;27051;50.376;19.152;2022-12-07T05:46:21;21.07;;;8.55;;
41305;SDS011;27051;50.376;19.152;2022-12-07T05:48:48;19.30;;;9.13;;
41305;SDS011;27051;50.376;19.152;2022-12-07T05:51:14;19.82;;;8.55;;
41305;SDS011;27051;50.376;19.152;2022-12-07T05:53:41;20.92;;;10.23;;
41305;SDS011;27051;50.376;19.152;2022-12-07T05:56:08;21.20;;;9.60;;
41305;SDS011;27051;50.376;19.152;2022-12-07T05:58:35;18.57;;;8.80;;
41305;SDS011;27051;50.376;19.152;2022-12-07T06:01:02;19.92;;;8.95;;
41305;SDS011;27051;50.376;19.152;2022-12-07T06:03:28;21.85;;;8.85;;
41305;SDS011;27051;50.376;19.152;2022-12-07T06:05:55;17.73;;;8.75;;
41305;SDS011;27051;50.376;19.152;2022-12-07T06:08:21;19.67;;;8.93;;
41305;SDS011;27051;50.376;19.152;2022-12-07T06:10:48;19.77;;;9.40;;
41305;SDS011;27051;50.376;19.152;2022-12-07T06:13:15;20.15;;;9.23;;
41305;SDS011;27051;50.376;19.152;2022-12-07T06:15:41;20.17;;;9.50;;
41305;SDS011;27051;50.376;19.152;2022-12-07T06:18:08;22.42;;;10.28;;
41305;SDS011;27051;50.376;19.152;2022-12-07T06:20:34;19.95;;;9.78;;
41305;SDS011;27051;50.376;19.152;2022-12-07T06:23:01;21.05;;;10.40;;
41305;SDS011;27051;50.376;19.152;2022-12-07T06:25:28;20.30;;;10.80;;
41305;SDS011;27051;50.376;19.152;2022-12-07T06:27:54;20.80;;;10.58;;
41305;SDS011;27051;50.376;19.152;2022-12-07T06:30:21;22.77;;;11.03;;
41305;SDS011;27051;50.376;19.152;2022-12-07T06:32:48;21.30;;;10.03;;
41305;SDS011;27051;50.376;19.152;2022-12-07T06:35:14;20.25;;;10.13;;
41305;SDS011;27051;50.376;19.152;2022-12-07T06:37:41;18.45;;;8.80;;
41305;SDS011;27051;50.376;19.152;2022-12-07T06:40:08;19.57;;;8.88;;
41305;SDS011;27051;50.376;19.152;2022-12-07T06:42:36;18.00;;;8.15;;
41305;SDS011;27051;50.376;19.152;2022-12-07T06:45:03;20.12;;;10.13;;
41305;SDS011;27051;50.376;19.152;2022-12-07T06:47:30;18.48;;;8.25;;
41305;SDS011;27051;50.376;19.152;2022-12-07T06:49:57;20.02;;;8.20;;
41305;SDS011;27051;50.376;19.152;2022-12-07T06:52:23;19.32;;;9.45;;
41305;SDS011;27051;50.376;19.152;2022-12-07T06:54:50;17.52;;;8.38;;
41305;SDS011;27051;50.376;19.152;2022-12-07T06:57:17;23.10;;;10.53;;
41305;SDS011;27051;50.376;19.152;2022-12-07T06:59:43;27.22;;;14.18;;
41305;SDS011;27051;50.376;19.152;2022-12-07T07:02:10;36.93;;;14.95;;
41305;SDS011;27051;50.376;19.152;2022-12-07T07:04:37;28.27;;;11.57;;
41305;SDS011;27051;50.376;19.152;2022-12-07T07:07:03;21.50;;;9.88;;
41305;SDS011;27051;50.376;19.152;2022-12-07T07:09:30;22.17;;;10.45;;
41305;SDS011;27051;50.376;19.152;2022-12-07T07:11:56;22.13;;;10.90;;
41305;SDS011;27051;50.376;19.152;2022-12-07T07:14:23;23.07;;;11.97;;
41305;SDS011;27051;50.376;19.152;2022-12-07T07:16:50;30.82;;;15.10;;
41305;SDS011;27051;50.376;19.152;2022-12-07T07:19:16;34.13;;;16.30;;
41305;SDS011;27051;50.376;19.152;2022-12-07T07:21:43;36.63;;;18.48;;
41305;SDS011;27051;50.376;19.152;2022-12-07T07:24:10;39.83;;;19.15;;
41305;SDS011;27051;50.376;19.152;2022-12-07T07:26:37;40.67;;;18.75;;
41305;SDS011;27051;50.376;19.152;2022-12-07T07:29:04;42.70;;;19.92;;
41305;SDS011;27051;50.376;19.152;2022-12-07T07:31:30;42.10;;;19.77;;
41305;SDS011;27051;50.376;19.152;2022-12-07T07:33:57;37.35;;;19.27;;
41305;SDS011;27051;50.376;19.152;2022-12-07T07:36:23;37.88;;;18.90;;
41305;SDS011;27051;50.376;19.152;2022-12-07T07:38:50;38.00;;;19.05;;
41305;SDS011;27051;50.376;19.152;2022-12-07T07:41:17;37.08;;;19.50;;
41305;SDS011;27051;50.376;19.152;2022-12-07T07:43:43;39.25;;;18.15;;
41305;SDS011;27051;50.376;19.152;2022-12-07T07:46:10;36.98;;;17.02;;
41305;SDS011;27051;50.376;19.152;2022-12-07T07:48:36;30.97;;;16.07;;
41305;SDS011;27051;50.376;19.152;2022-12-07T07:51:07;43.85;;;21.33;;
41305;SDS011;27051;50.376;19.152;2022-12-07T07:53:34;40.45;;;19.87;;
41305;SDS011;27051;50.376;19.152;2022-12-07T07:56:01;32.70;;;18.00;;
41305;SDS011;27051;50.376;19.152;2022-12-07T07:58:29;33.50;;;17.98;;
41305;SDS011;27051;50.376;19.152;2022-12-07T08:00:55;34.20;;;16.70;;
41305;SDS011;27051;50.376;19.152;2022-12-07T08:03:22;35.85;;;17.55;;
41305;SDS011;27051;50.376;19.152;2022-12-07T08:05:49;36.83;;;17.62;;
41305;SDS011;27051;50.376;19.152;2022-12-07T08:08:15;31.82;;;17.27;;
41305;SDS011;27051;50.376;19.152;2022-12-07T08:10:42;33.02;;;16.12;;
41305;SDS011;27051;50.376;19.152;2022-12-07T08:13:09;33.70;;;16.80;;
41305;SDS011;27051;50.376;19.152;2022-12-07T08:15:36;32.28;;;16.75;;
41305;SDS011;27051;50.376;19.152;2022-12-07T08:18:04;33.20;;;18.75;;
41305;SDS011;27051;50.376;19.152;2022-12-07T08:20:32;31.73;;;16.23;;
41305;SDS011;27051;50.376;19.152;2022-12-07T08:23:01;32.00;;;16.37;;
41305;SDS011;27051;50.376;19.152;2022-12-07T08:25:28;32.60;;;15.75;;
41305;SDS011;27051;50.376;19.152;2022-12-07T08:27:55;32.95;;;17.05;;
41305;SDS011;27051;50.376;19.152;2022-12-07T08:30:22;39.78;;;17.62;;
41305;SDS011;27051;50.376;19.152;2022-12-07T08:32:49;35.20;;;16.93;;
41305;SDS011;27051;50.376;19.152;2022-12-07T08:35:16;36.80;;;16.32;;
41305;SDS011;27051;50.376;19.152;2022-12-07T08:37:43;31.37;;;15.38;;
41305;SDS011;27051;50.376;19.152;2022-12-07T08:40:10;28.05;;;13.60;;
41305;SDS011;27051;50.376;19.152;2022-12-07T08:42:39;31.15;;;15.72;;
41305;SDS011;27051;50.376;19.152;2022-12-07T08:45:06;29.12;;;13.05;;
41305;SDS011;27051;50.376;19.152;2022-12-07T08:47:36;23.57;;;12.63;;
41305;SDS011;27051;50.376;19.152;2022-12-07T08:50:08;23.65;;;11.55;;
41305;SDS011;27051;50.376;19.152;2022-12-07T08:52:37;24.18;;;11.88;;
41305;SDS011;27051;50.376;19.152;2022-12-07T08:55:07;25.55;;;11.83;;
41305;SDS011;27051;50.376;19.152;2022-12-07T09:00:05;24.87;;;12.15;;
41305;SDS011;27051;50.376;19.152;2022-12-07T09:02:33;24.10;;;12.13;;
41305;SDS011;27051;50.376;19.152;2022-12-07T09:05:01;28.98;;;13.48;;
41305;SDS011;27051;50.376;19.152;2022-12-07T09:07:27;39.48;;;16.42;;
41305;SDS011;27051;50.376;19.152;2022-12-07T09:09:56;40.50;;;17.73;;
41305;SDS011;27051;50.376;19.152;2022-12-07T09:12:23;37.10;;;17.80;;
41305;SDS011;27051;50.376;19.152;2022-12-07T09:14:50;27.13;;;14.10;;
41305;SDS011;27051;50.376;19.152;2022-12-07T09:17:16;23.87;;;12.40;;
41305;SDS011;27051;50.376;19.152;2022-12-07T09:19:43;29.95;;;14.38;;
41305;SDS011;27051;50.376;19.152;2022-12-07T09:22:10;26.10;;;13.28;;
41305;SDS011;27051;50.376;19.152;2022-12-07T09:24:36;25.17;;;13.08;;
41305;SDS011;27051;50.376;19.152;2022-12-07T09:27:04;28.45;;;12.98;;
41305;SDS011;27051;50.376;19.152;2022-12-07T09:29:30;24.52;;;11.97;;
41305;SDS011;27051;50.376;19.152;2022-12-07T09:31:57;25.20;;;12.82;;
41305;SDS011;27051;50.376;19.152;2022-12-07T09:34:24;27.25;;;13.03;;
41305;SDS011;27051;50.376;19.152;2022-12-07T09:36:50;30.35;;;14.33;;
41305;SDS011;27051;50.376;19.152;2022-12-07T09:39:17;29.87;;;16.02;;
41305;SDS011;27051;50.376;19.152;2022-12-07T09:41:44;34.05;;;17.70;;
41305;SDS011;27051;50.376;19.152;2022-12-07T09:44:21;35.38;;;18.70;;
41305;SDS011;27051;50.376;19.152;2022-12-07T09:46:51;34.53;;;18.20;;
41305;SDS011;27051;50.376;19.152;2022-12-07T09:49:19;45.12;;;21.30;;
41305;SDS011;27051;50.376;19.152;2022-12-07T09:51:59;39.60;;;21.25;;
41305;SDS011;27051;50.376;19.152;2022-12-07T09:54:30;40.65;;;21.80;;
41305;SDS011;27051;50.376;19.152;2022-12-07T09:56:58;34.95;;;19.07;;
41305;SDS011;27051;50.376;19.152;2022-12-07T09:59:25;35.92;;;18.25;;
41305;SDS011;27051;50.376;19.152;2022-12-07T10:01:52;38.60;;;19.85;;
41305;SDS011;27051;50.376;19.152;2022-12-07T10:04:19;33.92;;;18.70;;
41305;SDS011;27051;50.376;19.152;2022-12-07T10:06:49;35.80;;;19.53;;
41305;SDS011;27051;50.376;19.152;2022-12-07T10:09:18;39.58;;;22.15;;
41305;SDS011;27051;50.376;19.152;2022-12-07T10:14:33;42.95;;;23.67;;
41305;SDS011;27051;50.376;19.152;2022-12-07T10:17:25;46.85;;;24.55;;
41305;SDS011;27051;50.376;19.152;2022-12-07T10:20:13;52.98;;;26.60;;
41305;SDS011;27051;50.376;19.152;2022-12-07T10:25:32;69.40;;;35.63;;
41305;SDS011;27051;50.376;19.152;2022-12-07T10:28:11;94.20;;;42.00;;
41305;SDS011;27051;50.376;19.152;2022-12-07T10:30:49;110.05;;;48.30;;
41305;SDS011;27051;50.376;19.152;2022-12-07T10:33:35;76.30;;;37.98;;
41305;SDS011;27051;50.376;19.152;2022-12-07T10:38:53;57.75;;;30.48;;
41305;SDS011;27051;50.376;19.152;2022-12-07T10:41:27;55.33;;;28.77;;
41305;SDS011;27051;50.376;19.152;2022-12-07T10:43:55;56.60;;;29.55;;
41305;SDS011;27051;50.376;19.152;2022-12-07T10:46:34;49.45;;;25.52;;
41305;SDS011;27051;50.376;19.152;2022-12-07T10:55:22;69.87;;;33.83;;
41305;SDS011;27051;50.376;19.152;2022-12-07T11:13:30;44.23;;;22.85;;
41305;SDS011;27051;50.376;19.152;2022-12-07T11:15:48;38.83;;;20.23;;
41305;SDS011;27051;50.376;19.152;2022-12-07T11:24:21;33.73;;;17.02;;
41305;SDS011;27051;50.376;19.152;2022-12-07T11:27:00;32.05;;;16.25;;
41305;SDS011;27051;50.376;19.152;2022-12-07T11:29:48;30.20;;;14.70;;
41305;SDS011;27051;50.376;19.152;2022-12-07T11:32:44;30.25;;;15.95;;
41305;SDS011;27051;50.376;19.152;2022-12-07T11:35:47;29.60;;;15.68;;
41305;SDS011;27051;50.376;19.152;2022-12-07T11:38:36;31.37;;;16.82;;
41305;SDS011;27051;50.376;19.152;2022-12-07T11:41:23;29.98;;;16.80;;
41305;SDS011;27051;50.376;19.152;2022-12-07T11:46:40;27.80;;;16.12;;
41305;SDS011;27051;50.376;19.152;2022-12-07T11:49:25;30.20;;;16.70;;
41305;SDS011;27051;50.376;19.152;2022-12-07T11:52:20;27.40;;;14.60;;
41305;SDS011;27051;50.376;19.152;2022-12-07T11:54:59;28.47;;;14.50;;
41305;SDS011;27051;50.376;19.152;2022-12-07T11:57:31;29.12;;;14.07;;
41305;SDS011;27051;50.376;19.152;2022-12-07T12:00:12;33.90;;;16.97;;
41305;SDS011;27051;50.376;19.152;2022-12-07T12:02:44;30.75;;;14.28;;
41305;SDS011;27051;50.376;19.152;2022-12-07T12:05:32;26.05;;;13.75;;
41305;SDS011;27051;50.376;19.152;2022-12-07T12:08:02;35.35;;;18.80;;
41305;SDS011;27051;50.376;19.152;2022-12-07T12:13:52;44.45;;;22.42;;
41305;SDS011;27051;50.376;19.152;2022-12-07T12:22:51;26.25;;;13.95;;
41305;SDS011;27051;50.376;19.152;2022-12-07T12:25:34;21.62;;;11.63;;
41305;SDS011;27051;50.376;19.152;2022-12-07T12:28:18;27.58;;;13.93;;
41305;SDS011;27051;50.376;19.152;2022-12-07T12:33:55;24.23;;;11.45;;
41305;SDS011;27051;50.376;19.152;2022-12-07T12:39:12;23.62;;;11.08;;
41305;SDS011;27051;50.376;19.152;2022-12-07T12:46:53;31.70;;;14.35;;
41305;SDS011;27051;50.376;19.152;2022-12-07T12:55:12;23.40;;;10.38;;
41305;SDS011;27051;50.376;19.152;2022-12-07T12:57:39;21.50;;;10.85;;
41305;SDS011;27051;50.376;19.152;2022-12-07T13:02:50;21.95;;;11.53;;
41305;SDS011;27051;50.376;19.152;2022-12-07T13:05:23;21.37;;;10.95;;
41305;SDS011;27051;50.376;19.152;2022-12-07T13:07:55;21.80;;;10.98;;
41305;SDS011;27051;50.376;19.152;2022-12-07T13:10:37;20.60;;;11.03;;
41305;SDS011;27051;50.376;19.152;2022-12-07T13:15:47;24.50;;;12.40;;
41305;SDS011;27051;50.376;19.152;2022-12-07T13:18:36;29.15;;;16.73;;
41305;SDS011;27051;50.376;19.152;2022-12-07T13:26:24;20.75;;;11.95;;
41305;SDS011;27051;50.376;19.152;2022-12-07T13:31:44;22.62;;;12.43;;
41305;SDS011;27051;50.376;19.152;2022-12-07T13:34:36;22.85;;;11.95;;
41305;SDS011;27051;50.376;19.152;2022-12-07T13:37:10;25.32;;;12.23;;
41305;SDS011;27051;50.376;19.152;2022-12-07T13:40:14;25.30;;;13.00;;
41305;SDS011;27051;50.376;19.152;2022-12-07T13:42:44;22.35;;;12.25;;
41305;SDS011;27051;50.376;19.152;2022-12-07T13:45:26;21.65;;;11.65;;
41305;SDS011;27051;50.376;19.152;2022-12-07T13:47:56;21.90;;;11.18;;
41305;SDS011;27051;50.376;19.152;2022-12-07T13:53:01;26.77;;;13.58;;
41305;SDS011;27051;50.376;19.152;2022-12-07T13:55:27;28.17;;;13.53;;
41305;SDS011;27051;50.376;19.152;2022-12-07T13:57:56;25.08;;;11.97;;
41305;SDS011;27051;50.376;19.152;2022-12-07T14:00:27;23.38;;;12.03;;
41305;SDS011;27051;50.376;19.152;2022-12-07T14:02:55;25.72;;;13.10;;
41305;SDS011;27051;50.376;19.152;2022-12-07T14:05:29;25.40;;;12.35;;
41305;SDS011;27051;50.376;19.152;2022-12-07T14:07:59;25.37;;;12.58;;
41305;SDS011;27051;50.376;19.152;2022-12-07T14:10:33;24.60;;;12.73;;
41305;SDS011;27051;50.376;19.152;2022-12-07T14:15:52;20.75;;;10.23;;
41305;SDS011;27051;50.376;19.152;2022-12-07T14:18:30;23.35;;;11.03;;
41305;SDS011;27051;50.376;19.152;2022-12-07T14:21:13;22.65;;;11.97;;
41305;SDS011;27051;50.376;19.152;2022-12-07T14:23:42;24.80;;;13.53;;
41305;SDS011;27051;50.376;19.152;2022-12-07T14:28:42;21.45;;;10.63;;
41305;SDS011;27051;50.376;19.152;2022-12-07T14:31:15;21.82;;;10.85;;
41305;SDS011;27051;50.376;19.152;2022-12-07T14:33:41;17.17;;;9.47;;
41305;SDS011;27051;50.376;19.152;2022-12-07T14:36:09;18.95;;;9.75;;
41305;SDS011;27051;50.376;19.152;2022-12-07T14:38:38;20.65;;;11.22;;
41305;SDS011;27051;50.376;19.152;2022-12-07T14:41:06;25.43;;;12.30;;
41305;SDS011;27051;50.376;19.152;2022-12-07T14:43:42;22.58;;;11.18;;
41305;SDS011;27051;50.376;19.152;2022-12-07T14:46:09;19.32;;;9.63;;
41305;SDS011;27051;50.376;19.152;2022-12-07T14:48:36;21.25;;;9.73;;
41305;SDS011;27051;50.376;19.152;2022-12-07T14:51:03;28.83;;;13.75;;
41305;SDS011;27051;50.376;19.152;2022-12-07T14:53:35;25.23;;;12.75;;
41305;SDS011;27051;50.376;19.152;2022-12-07T14:56:06;27.80;;;15.20;;
41305;SDS011;27051;50.376;19.152;2022-12-07T14:58:33;34.00;;;16.97;;
41305;SDS011;27051;50.376;19.152;2022-12-07T15:01:00;46.35;;;23.20;;
41305;SDS011;27051;50.376;19.152;2022-12-07T15:03:27;38.65;;;18.35;;
41305;SDS011;27051;50.376;19.152;2022-12-07T15:05:54;39.60;;;18.77;;
41305;SDS011;27051;50.376;19.152;2022-12-07T15:08:21;45.38;;;19.77;;
41305;SDS011;27051;50.376;19.152;2022-12-07T15:10:48;38.28;;;16.90;;
41305;SDS011;27051;50.376;19.152;2022-12-07T15:13:14;45.65;;;20.60;;
41305;SDS011;27051;50.376;19.152;2022-12-07T15:15:54;37.65;;;17.52;;
41305;SDS011;27051;50.376;19.152;2022-12-07T15:18:22;35.20;;;17.37;;
41305;SDS011;27051;50.376;19.152;2022-12-07T15:20:49;44.65;;;20.20;;
41305;SDS011;27051;50.376;19.152;2022-12-07T15:23:16;40.90;;;18.90;;
41305;SDS011;27051;50.376;19.152;2022-12-07T15:25:44;32.95;;;14.63;;
41305;SDS011;27051;50.376;19.152;2022-12-07T15:28:13;37.13;;;16.55;;
41305;SDS011;27051;50.376;19.152;2022-12-07T15:30:41;27.62;;;12.88;;
41305;SDS011;27051;50.376;19.152;2022-12-07T15:33:10;30.80;;;15.50;;
41305;SDS011;27051;50.376;19.152;2022-12-07T15:35:41;30.35;;;14.65;;
41305;SDS011;27051;50.376;19.152;2022-12-07T15:38:11;31.27;;;14.28;;
41305;SDS011;27051;50.376;19.152;2022-12-07T15:40:38;27.40;;;14.05;;
41305;SDS011;27051;50.376;19.152;2022-12-07T15:43:05;27.07;;;13.48;;
41305;SDS011;27051;50.376;19.152;2022-12-07T15:45:36;25.35;;;13.18;;
41305;SDS011;27051;50.376;19.152;2022-12-07T15:48:03;26.10;;;12.90;;
41305;SDS011;27051;50.376;19.152;2022-12-07T15:50:30;25.08;;;12.30;;
41305;SDS011;27051;50.376;19.152;2022-12-07T15:52:57;26.17;;;11.85;;
41305;SDS011;27051;50.376;19.152;2022-12-07T15:55:24;24.05;;;12.15;;
41305;SDS011;27051;50.376;19.152;2022-12-07T15:57:50;25.65;;;13.93;;
41305;SDS011;27051;50.376;19.152;2022-12-07T16:00:17;30.97;;;13.43;;
41305;SDS011;27051;50.376;19.152;2022-12-07T16:02:45;27.67;;;12.88;;
41305;SDS011;27051;50.376;19.152;2022-12-07T16:05:12;25.40;;;13.65;;
41305;SDS011;27051;50.376;19.152;2022-12-07T16:07:39;26.50;;;11.68;;
41305;SDS011;27051;50.376;19.152;2022-12-07T16:10:06;27.45;;;12.75;;
41305;SDS011;27051;50.376;19.152;2022-12-07T16:12:34;25.50;;;12.98;;
41305;SDS011;27051;50.376;19.152;2022-12-07T16:15:01;24.80;;;12.23;;
41305;SDS011;27051;50.376;19.152;2022-12-07T16:17:27;26.17;;;14.23;;
41305;SDS011;27051;50.376;19.152;2022-12-07T16:19:54;27.00;;;14.18;;
41305;SDS011;27051;50.376;19.152;2022-12-07T16:22:21;27.45;;;13.15;;
41305;SDS011;27051;50.376;19.152;2022-12-07T16:24:47;30.30;;;13.45;;
41305;SDS011;27051;50.376;19.152;2022-12-07T16:27:14;29.23;;;13.90;;
41305;SDS011;27051;50.376;19.152;2022-12-07T16:29:41;67.17;;;37.58;;